sensor_id;sensor_type;location;lat;lon;timestamp;pressure;altitude;pressure_sealevel;temperature
27826;BMP280;15077;49.704;9.908;2024-03-06T00:02:06;98132.72;;;12.65
27826;BMP280;15077;49.704;9.908;2024-03-06T00:04:33;98134.44;;;12.64
27826;BMP280;15077;49.704;9.908;2024-03-06T00:06:59;98132.72;;;12.65
27826;BMP280;15077;49.704;9.908;2024-03-06T00:09:25;98137.81;;;12.65
27826;BMP280;15077;49.704;9.908;2024-03-06T00:11:54;98145.53;;;12.63
27826;BMP280;15077;49.704;9.908;2024-03-06T00:14:21;98148.94;;;12.62
27826;BMP280;15077;49.704;9.908;2024-03-06T00:16:48;98148.28;;;12.59
27826;BMP280;15077;49.704;9.908;2024-03-06T00:19:18;98150.06;;;12.57
27826;BMP280;15077;49.704;9.908;2024-03-06T00:21:46;98152.66;;;12.56
27826;BMP280;15077;49.704;9.908;2024-03-06T00:24:14;98151.84;;;12.55
27826;BMP280;15077;49.704;9.908;2024-03-06T00:26:40;98156.13;;;12.55
27826;BMP280;15077;49.704;9.908;2024-03-06T00:29:06;98154.41;;;12.55
27826;BMP280;15077;49.704;9.908;2024-03-06T00:31:32;98156.94;;;12.55
27826;BMP280;15077;49.704;9.908;2024-03-06T00:33:58;98177.22;;;12.57
27826;BMP280;15077;49.704;9.908;2024-03-06T00:36:23;98180.63;;;12.56
27826;BMP280;15077;49.704;9.908;2024-03-06T00:38:50;98180.63;;;12.56
27826;BMP280;15077;49.704;9.908;2024-03-06T00:41:15;98181.53;;;12.55
27826;BMP280;15077;49.704;9.908;2024-03-06T00:43:41;98186.63;;;12.55
27826;BMP280;15077;49.704;9.908;2024-03-06T00:46:06;98186.78;;;12.52
27826;BMP280;15077;49.704;9.908;2024-03-06T00:48:32;98193.63;;;12.50
27826;BMP280;15077;49.704;9.908;2024-03-06T00:50:58;98192.00;;;12.49
27826;BMP280;15077;49.704;9.908;2024-03-06T00:53:23;98197.09;;;12.49
27826;BMP280;15077;49.704;9.908;2024-03-06T00:55:49;98195.44;;;12.48
27826;BMP280;15077;49.704;9.908;2024-03-06T00:58:15;98198.84;;;12.47
27826;BMP280;15077;49.704;9.908;2024-03-06T01:00:41;98190.34;;;12.48
27826;BMP280;15077;49.704;9.908;2024-03-06T01:03:06;98197.91;;;12.49
27826;BMP280;15077;49.704;9.908;2024-03-06T01:05:32;98200.50;;;12.48
27826;BMP280;15077;49.704;9.908;2024-03-06T01:07:58;98200.44;;;12.49
27826;BMP280;15077;49.704;9.908;2024-03-06T01:10:24;98199.56;;;12.50
27826;BMP280;15077;49.704;9.908;2024-03-06T01:12:50;98203.81;;;12.50
27826;BMP280;15077;49.704;9.908;2024-03-06T01:15:16;98203.81;;;12.50
27826;BMP280;15077;49.704;9.908;2024-03-06T01:17:42;98199.63;;;12.49
27826;BMP280;15077;49.704;9.908;2024-03-06T01:20:08;98197.84;;;12.51
27826;BMP280;15077;49.704;9.908;2024-03-06T01:22:34;98199.19;;;12.58
27826;BMP280;15077;49.704;9.908;2024-03-06T01:25:00;98204.88;;;12.62
27826;BMP280;15077;49.704;9.908;2024-03-06T01:27:27;98205.56;;;12.66
27826;BMP280;15077;49.704;9.908;2024-03-06T01:29:53;98204.59;;;12.68
27826;BMP280;15077;49.704;9.908;2024-03-06T01:32:19;98203.56;;;12.72
27826;BMP280;15077;49.704;9.908;2024-03-06T01:34:45;98210.28;;;12.73
27826;BMP280;15077;49.704;9.908;2024-03-06T01:37:11;98213.66;;;12.74
27826;BMP280;15077;49.704;9.908;2024-03-06T01:39:36;98212.81;;;12.73
27826;BMP280;15077;49.704;9.908;2024-03-06T01:42:02;98219.72;;;12.71
27826;BMP280;15077;49.704;9.908;2024-03-06T01:44:29;98214.78;;;12.68
27826;BMP280;15077;49.704;9.908;2024-03-06T01:46:54;98213.25;;;12.64
27826;BMP280;15077;49.704;9.908;2024-03-06T01:49:21;98225.22;;;12.62
27826;BMP280;15077;49.704;9.908;2024-03-06T01:51:50;98218.56;;;12.60
27826;BMP280;15077;49.704;9.908;2024-03-06T01:54:16;98217.00;;;12.58
27826;BMP280;15077;49.704;9.908;2024-03-06T01:56:46;98215.34;;;12.57
27826;BMP280;15077;49.704;9.908;2024-03-06T01:59:13;98211.13;;;12.56
27826;BMP280;15077;49.704;9.908;2024-03-06T02:01:39;98210.25;;;12.57
27826;BMP280;15077;49.704;9.908;2024-03-06T02:04:06;98205.97;;;12.57
27826;BMP280;15077;49.704;9.908;2024-03-06T02:06:34;98205.09;;;12.58
27826;BMP280;15077;49.704;9.908;2024-03-06T02:09:00;98204.28;;;12.58
27826;BMP280;15077;49.704;9.908;2024-03-06T02:11:29;98205.09;;;12.58
27826;BMP280;15077;49.704;9.908;2024-03-06T02:13:56;98200.81;;;12.58
27826;BMP280;15077;49.704;9.908;2024-03-06T02:16:22;98198.22;;;12.60
27826;BMP280;15077;49.704;9.908;2024-03-06T02:18:54;98203.22;;;12.61
27826;BMP280;15077;49.704;9.908;2024-03-06T02:21:21;98194.72;;;12.62
27826;BMP280;15077;49.704;9.908;2024-03-06T02:23:50;98195.53;;;12.63
27826;BMP280;15077;49.704;9.908;2024-03-06T02:26:20;98198.84;;;12.65
27826;BMP280;15077;49.704;9.908;2024-03-06T02:28:50;98197.13;;;12.65
27826;BMP280;15077;49.704;9.908;2024-03-06T02:31:16;98198.78;;;12.66
27826;BMP280;15077;49.704;9.908;2024-03-06T02:33:43;98197.03;;;12.67
27826;BMP280;15077;49.704;9.908;2024-03-06T02:36:18;98194.41;;;12.68
27826;BMP280;15077;49.704;9.908;2024-03-06T02:38:45;98200.31;;;12.69
27826;BMP280;15077;49.704;9.908;2024-03-06T02:41:11;98195.16;;;12.70
27826;BMP280;15077;49.704;9.908;2024-03-06T02:43:37;98193.53;;;12.69
27826;BMP280;15077;49.704;9.908;2024-03-06T02:46:03;98194.28;;;12.71
27826;BMP280;15077;49.704;9.908;2024-03-06T02:48:29;98184.09;;;12.71
27826;BMP280;15077;49.704;9.908;2024-03-06T02:50:56;98189.19;;;12.71
27826;BMP280;15077;49.704;9.908;2024-03-06T02:53:22;98181.63;;;12.70
27826;BMP280;15077;49.704;9.908;2024-03-06T02:55:48;98180.81;;;12.69
27826;BMP280;15077;49.704;9.908;2024-03-06T02:58:14;98182.59;;;12.67
27826;BMP280;15077;49.704;9.908;2024-03-06T03:00:42;98195.31;;;12.67
27826;BMP280;15077;49.704;9.908;2024-03-06T03:03:08;98184.41;;;12.65
27826;BMP280;15077;49.704;9.908;2024-03-06T03:05:34;98187.81;;;12.64
27826;BMP280;15077;49.704;9.908;2024-03-06T03:07:59;98188.75;;;12.63
27826;BMP280;15077;49.704;9.908;2024-03-06T03:10:25;98187.09;;;12.62
27826;BMP280;15077;49.704;9.908;2024-03-06T03:12:51;98190.50;;;12.61
27826;BMP280;15077;49.704;9.908;2024-03-06T03:15:17;98188.03;;;12.60
27826;BMP280;15077;49.704;9.908;2024-03-06T03:17:43;98186.41;;;12.59
27826;BMP280;15077;49.704;9.908;2024-03-06T03:20:09;98177.94;;;12.58
27826;BMP280;15077;49.704;9.908;2024-03-06T03:22:38;98181.41;;;12.58
27826;BMP280;15077;49.704;9.908;2024-03-06T03:25:11;98174.66;;;12.57
27826;BMP280;15077;49.704;9.908;2024-03-06T03:27:38;98169.72;;;12.54
27826;BMP280;15077;49.704;9.908;2024-03-06T03:30:09;98179.88;;;12.54
27826;BMP280;15077;49.704;9.908;2024-03-06T03:32:35;98184.22;;;12.52
27826;BMP280;15077;49.704;9.908;2024-03-06T03:35:00;98183.38;;;12.51
27826;BMP280;15077;49.704;9.908;2024-03-06T03:37:26;98184.31;;;12.50
27826;BMP280;15077;49.704;9.908;2024-03-06T03:39:52;98186.00;;;12.50
27826;BMP280;15077;49.704;9.908;2024-03-06T03:42:18;98192.00;;;12.49
27826;BMP280;15077;49.704;9.908;2024-03-06T03:44:44;98195.44;;;12.48
27826;BMP280;15077;49.704;9.908;2024-03-06T03:47:10;98195.44;;;12.48
27826;BMP280;15077;49.704;9.908;2024-03-06T03:49:36;98200.44;;;12.49
27826;BMP280;15077;49.704;9.908;2024-03-06T03:52:02;98195.34;;;12.49
27826;BMP280;15077;49.704;9.908;2024-03-06T03:54:28;98201.25;;;12.50
27826;BMP280;15077;49.704;9.908;2024-03-06T03:56:57;98207.13;;;12.52
27826;BMP280;15077;49.704;9.908;2024-03-06T03:59:25;98210.41;;;12.54
27826;BMP280;15077;49.704;9.908;2024-03-06T04:01:51;98206.97;;;12.55
27826;BMP280;15077;49.704;9.908;2024-03-06T04:04:17;98208.59;;;12.56
27826;BMP280;15077;49.704;9.908;2024-03-06T04:06:42;98215.34;;;12.57
27826;BMP280;15077;49.704;9.908;2024-03-06T04:09:08;98213.53;;;12.58
27826;BMP280;15077;49.704;9.908;2024-03-06T04:11:37;98216.00;;;12.60
27826;BMP280;15077;49.704;9.908;2024-03-06T04:14:06;98214.38;;;12.59
27826;BMP280;15077;49.704;9.908;2024-03-06T04:16:33;98224.47;;;12.60
27826;BMP280;15077;49.704;9.908;2024-03-06T04:18:59;98226.19;;;12.60
27826;BMP280;15077;49.704;9.908;2024-03-06T04:21:25;98227.03;;;12.60
27826;BMP280;15077;49.704;9.908;2024-03-06T04:23:50;98225.31;;;12.61
27826;BMP280;15077;49.704;9.908;2024-03-06T04:26:16;98224.47;;;12.60
27826;BMP280;15077;49.704;9.908;2024-03-06T04:28:43;98223.56;;;12.61
27826;BMP280;15077;49.704;9.908;2024-03-06T04:31:09;98232.84;;;12.62
27826;BMP280;15077;49.704;9.908;2024-03-06T04:33:35;98237.94;;;12.62
27826;BMP280;15077;49.704;9.908;2024-03-06T04:36:04;98239.59;;;12.63
27826;BMP280;15077;49.704;9.908;2024-03-06T04:38:33;98241.22;;;12.64
27826;BMP280;15077;49.704;9.908;2024-03-06T04:40:59;98241.22;;;12.64
27826;BMP280;15077;49.704;9.908;2024-03-06T04:43:25;98246.25;;;12.66
27826;BMP280;15077;49.704;9.908;2024-03-06T04:45:51;98247.97;;;12.65
27826;BMP280;15077;49.704;9.908;2024-03-06T04:48:16;98247.91;;;12.67
27826;BMP280;15077;49.704;9.908;2024-03-06T04:50:42;98254.72;;;12.66
27826;BMP280;15077;49.704;9.908;2024-03-06T04:53:08;98261.50;;;12.66
27826;BMP280;15077;49.704;9.908;2024-03-06T04:55:34;98257.25;;;12.66
27826;BMP280;15077;49.704;9.908;2024-03-06T04:58:02;98259.88;;;12.65
27826;BMP280;15077;49.704;9.908;2024-03-06T05:00:28;98264.88;;;12.66
27826;BMP280;15077;49.704;9.908;2024-03-06T05:02:54;98259.81;;;12.66
27826;BMP280;15077;49.704;9.908;2024-03-06T05:05:21;98268.25;;;12.67
27826;BMP280;15077;49.704;9.908;2024-03-06T05:07:47;98270.78;;;12.67
27826;BMP280;15077;49.704;9.908;2024-03-06T05:10:13;98266.59;;;12.66
27826;BMP280;15077;49.704;9.908;2024-03-06T05:12:40;98267.50;;;12.65
27826;BMP280;15077;49.704;9.908;2024-03-06T05:15:06;98270.94;;;12.64
27826;BMP280;15077;49.704;9.908;2024-03-06T05:17:33;98275.19;;;12.63
27826;BMP280;15077;49.704;9.908;2024-03-06T05:19:59;98276.09;;;12.62
27826;BMP280;15077;49.704;9.908;2024-03-06T05:22:26;98282.06;;;12.61
27826;BMP280;15077;49.704;9.908;2024-03-06T05:24:52;98289.69;;;12.61
27826;BMP280;15077;49.704;9.908;2024-03-06T05:27:18;98288.06;;;12.60
27826;BMP280;15077;49.704;9.908;2024-03-06T05:29:44;98287.22;;;12.60
27826;BMP280;15077;49.704;9.908;2024-03-06T05:32:10;98293.94;;;12.61
27826;BMP280;15077;49.704;9.908;2024-03-06T05:34:36;98295.63;;;12.62
27826;BMP280;15077;49.704;9.908;2024-03-06T05:37:01;98287.13;;;12.61
27826;BMP280;15077;49.704;9.908;2024-03-06T05:39:30;98293.94;;;12.61
27826;BMP280;15077;49.704;9.908;2024-03-06T05:42:00;98295.69;;;12.60
27826;BMP280;15077;49.704;9.908;2024-03-06T05:44:28;98295.69;;;12.60
27826;BMP280;15077;49.704;9.908;2024-03-06T05:46:53;98293.13;;;12.60
27826;BMP280;15077;49.704;9.908;2024-03-06T05:49:19;98293.06;;;12.62
27826;BMP280;15077;49.704;9.908;2024-03-06T05:51:45;98295.69;;;12.60
27826;BMP280;15077;49.704;9.908;2024-03-06T05:54:11;98296.50;;;12.61
27826;BMP280;15077;49.704;9.908;2024-03-06T05:56:36;98304.94;;;12.61
27826;BMP280;15077;49.704;9.908;2024-03-06T05:59:04;98306.66;;;12.61
27826;BMP280;15077;49.704;9.908;2024-03-06T06:01:34;98310.03;;;12.61
27826;BMP280;15077;49.704;9.908;2024-03-06T06:04:01;98304.94;;;12.61
27826;BMP280;15077;49.704;9.908;2024-03-06T06:06:27;98311.69;;;12.62
27826;BMP280;15077;49.704;9.908;2024-03-06T06:08:53;98316.03;;;12.60
27826;BMP280;15077;49.704;9.908;2024-03-06T06:11:18;98308.41;;;12.60
27826;BMP280;15077;49.704;9.908;2024-03-06T06:13:44;98314.28;;;12.61
27826;BMP280;15077;49.704;9.908;2024-03-06T06:16:10;98329.63;;;12.59
27826;BMP280;15077;49.704;9.908;2024-03-06T06:18:35;98329.63;;;12.59
27826;BMP280;15077;49.704;9.908;2024-03-06T06:21:01;98332.97;;;12.60
27826;BMP280;15077;49.704;9.908;2024-03-06T06:23:29;98333.81;;;12.60
27826;BMP280;15077;49.704;9.908;2024-03-06T06:25:55;98338.00;;;12.61
27826;BMP280;15077;49.704;9.908;2024-03-06T06:28:21;98341.38;;;12.62
27826;BMP280;15077;49.704;9.908;2024-03-06T06:30:48;98335.38;;;12.63
27826;BMP280;15077;49.704;9.908;2024-03-06T06:33:14;98337.91;;;12.63
27826;BMP280;15077;49.704;9.908;2024-03-06T06:35:39;98338.78;;;12.63
27826;BMP280;15077;49.704;9.908;2024-03-06T06:38:05;98337.91;;;12.63
27826;BMP280;15077;49.704;9.908;2024-03-06T06:40:30;98337.91;;;12.63
27826;BMP280;15077;49.704;9.908;2024-03-06T06:42:58;98342.19;;;12.62
27826;BMP280;15077;49.704;9.908;2024-03-06T06:45:24;98339.66;;;12.62
27826;BMP280;15077;49.704;9.908;2024-03-06T06:47:51;98338.00;;;12.61
27826;BMP280;15077;49.704;9.908;2024-03-06T06:50:17;98344.00;;;12.60
27826;BMP280;15077;49.704;9.908;2024-03-06T06:52:42;98356.63;;;12.62
27826;BMP280;15077;49.704;9.908;2024-03-06T06:55:08;98357.53;;;12.61
27826;BMP280;15077;49.704;9.908;2024-03-06T06:57:37;98357.44;;;12.62
27826;BMP280;15077;49.704;9.908;2024-03-06T07:00:04;98360.00;;;12.62
27826;BMP280;15077;49.704;9.908;2024-03-06T07:02:37;98363.34;;;12.63
27826;BMP280;15077;49.704;9.908;2024-03-06T07:05:04;98360.06;;;12.61
27826;BMP280;15077;49.704;9.908;2024-03-06T07:07:30;98371.91;;;12.62
27826;BMP280;15077;49.704;9.908;2024-03-06T07:09:56;98365.97;;;12.61
27826;BMP280;15077;49.704;9.908;2024-03-06T07:12:22;98371.91;;;12.62
27826;BMP280;15077;49.704;9.908;2024-03-06T07:14:47;98371.81;;;12.63
27826;BMP280;15077;49.704;9.908;2024-03-06T07:17:13;98372.72;;;12.62
27826;BMP280;15077;49.704;9.908;2024-03-06T07:19:39;98381.09;;;12.64
27826;BMP280;15077;49.704;9.908;2024-03-06T07:22:05;98381.09;;;12.64
27826;BMP280;15077;49.704;9.908;2024-03-06T07:24:31;98387.84;;;12.65
27826;BMP280;15077;49.704;9.908;2024-03-06T07:26:56;98391.97;;;12.68
27826;BMP280;15077;49.704;9.908;2024-03-06T07:29:22;98396.22;;;12.67
27826;BMP280;15077;49.704;9.908;2024-03-06T07:31:48;98390.25;;;12.68
27826;BMP280;15077;49.704;9.908;2024-03-06T07:34:14;98399.53;;;12.69
27826;BMP280;15077;49.704;9.908;2024-03-06T07:36:43;98392.66;;;12.71
27826;BMP280;15077;49.704;9.908;2024-03-06T07:39:08;98401.88;;;12.74
27826;BMP280;15077;49.704;9.908;2024-03-06T07:41:34;98391.69;;;12.74
27826;BMP280;15077;49.704;9.908;2024-03-06T07:44:00;98395.81;;;12.76
27826;BMP280;15077;49.704;9.908;2024-03-06T07:46:26;98394.84;;;12.79
27826;BMP280;15077;49.704;9.908;2024-03-06T07:48:52;98399.88;;;12.80
27826;BMP280;15077;49.704;9.908;2024-03-06T07:51:18;98400.56;;;12.84
27826;BMP280;15077;49.704;9.908;2024-03-06T07:53:44;98398.88;;;12.84
27826;BMP280;15077;49.704;9.908;2024-03-06T07:56:10;98402.16;;;12.86
27826;BMP280;15077;49.704;9.908;2024-03-06T07:58:39;98400.38;;;12.88
27826;BMP280;15077;49.704;9.908;2024-03-06T08:01:06;98408.78;;;12.90
27826;BMP280;15077;49.704;9.908;2024-03-06T08:03:33;98397.66;;;12.93
27826;BMP280;15077;49.704;9.908;2024-03-06T08:05:59;98410.31;;;12.94
27826;BMP280;15077;49.704;9.908;2024-03-06T08:08:25;98402.59;;;12.96
27826;BMP280;15077;49.704;9.908;2024-03-06T08:10:51;98402.47;;;12.99
27826;BMP280;15077;49.704;9.908;2024-03-06T08:13:17;98411.66;;;13.01
27826;BMP280;15077;49.704;9.908;2024-03-06T08:15:44;98411.66;;;13.01
27826;BMP280;15077;49.704;9.908;2024-03-06T08:18:10;98403.06;;;13.04
27826;BMP280;15077;49.704;9.908;2024-03-06T08:20:36;98407.22;;;13.06
27826;BMP280;15077;49.704;9.908;2024-03-06T08:23:02;98411.38;;;13.07
27826;BMP280;15077;49.704;9.908;2024-03-06T08:25:28;98413.03;;;13.08
27826;BMP280;15077;49.704;9.908;2024-03-06T08:27:54;98419.72;;;13.10
27826;BMP280;15077;49.704;9.908;2024-03-06T08:30:20;98430.66;;;13.12
27826;BMP280;15077;49.704;9.908;2024-03-06T08:32:45;98427.22;;;13.13
27826;BMP280;15077;49.704;9.908;2024-03-06T08:35:12;98431.47;;;13.13
27826;BMP280;15077;49.704;9.908;2024-03-06T08:37:39;98424.59;;;13.15
27826;BMP280;15077;49.704;9.908;2024-03-06T08:40:06;98436.41;;;13.16
27826;BMP280;15077;49.704;9.908;2024-03-06T08:42:43;98447.44;;;13.16
27826;BMP280;15077;49.704;9.908;2024-03-06T08:45:09;98439.72;;;13.18
27826;BMP280;15077;49.704;9.908;2024-03-06T08:47:36;98441.38;;;13.19
27826;BMP280;15077;49.704;9.908;2024-03-06T08:50:02;98443.03;;;13.20
27826;BMP280;15077;49.704;9.908;2024-03-06T08:52:29;98432.84;;;13.20
27826;BMP280;15077;49.704;9.908;2024-03-06T08:54:56;98450.66;;;13.20
27826;BMP280;15077;49.704;9.908;2024-03-06T08:57:22;98441.28;;;13.20
27826;BMP280;15077;49.704;9.908;2024-03-06T08:59:49;98450.66;;;13.20
27826;BMP280;15077;49.704;9.908;2024-03-06T09:02:17;98458.28;;;13.20
27826;BMP280;15077;49.704;9.908;2024-03-06T09:04:44;98456.63;;;13.19
27826;BMP280;15077;49.704;9.908;2024-03-06T09:07:10;98455.75;;;13.20
27826;BMP280;15077;49.704;9.908;2024-03-06T09:09:37;98459.19;;;13.19
27826;BMP280;15077;49.704;9.908;2024-03-06T09:12:04;98463.38;;;13.20
27826;BMP280;15077;49.704;9.908;2024-03-06T09:14:35;98461.72;;;13.19
27826;BMP280;15077;49.704;9.908;2024-03-06T09:17:02;98475.28;;;13.19
27826;BMP280;15077;49.704;9.908;2024-03-06T09:19:28;98474.44;;;13.19
27826;BMP280;15077;49.704;9.908;2024-03-06T09:21:54;98473.56;;;13.20
27826;BMP280;15077;49.704;9.908;2024-03-06T09:24:21;98476.09;;;13.20
27826;BMP280;15077;49.704;9.908;2024-03-06T09:26:49;98474.44;;;13.19
27826;BMP280;15077;49.704;9.908;2024-03-06T09:29:15;98472.25;;;13.11
27826;BMP280;15077;49.704;9.908;2024-03-06T09:31:42;98473.38;;;13.06
27826;BMP280;15077;49.704;9.908;2024-03-06T09:34:07;98476.06;;;13.03
27826;BMP280;15077;49.704;9.908;2024-03-06T09:36:36;98488.00;;;13.01
27826;BMP280;15077;49.704;9.908;2024-03-06T09:39:02;98490.53;;;13.01
27826;BMP280;15077;49.704;9.908;2024-03-06T09:41:30;98488.00;;;13.01
27826;BMP280;15077;49.704;9.908;2024-03-06T09:43:57;98488.00;;;13.01
27826;BMP280;15077;49.704;9.908;2024-03-06T09:46:22;98488.06;;;13.00
27826;BMP280;15077;49.704;9.908;2024-03-06T09:48:49;98495.63;;;13.01
27826;BMP280;15077;49.704;9.908;2024-03-06T09:51:16;98496.53;;;13.00
27826;BMP280;15077;49.704;9.908;2024-03-06T09:53:42;98500.78;;;13.00
27826;BMP280;15077;49.704;9.908;2024-03-06T09:56:11;98501.63;;;13.00
27826;BMP280;15077;49.704;9.908;2024-03-06T09:58:36;98501.63;;;13.00
27826;BMP280;15077;49.704;9.908;2024-03-06T10:01:03;98506.72;;;13.00
27826;BMP280;15077;49.704;9.908;2024-03-06T10:03:36;98520.19;;;13.02
27826;BMP280;15077;49.704;9.908;2024-03-06T10:06:02;98510.91;;;13.01
27826;BMP280;15077;49.704;9.908;2024-03-06T10:08:28;98510.00;;;13.02
27826;BMP280;15077;49.704;9.908;2024-03-06T10:10:53;98509.13;;;13.03
27826;BMP280;15077;49.704;9.908;2024-03-06T10:13:24;98506.59;;;13.03
27826;BMP280;15077;49.704;9.908;2024-03-06T10:16:04;98508.22;;;13.04
27826;BMP280;15077;49.704;9.908;2024-03-06T10:18:34;98501.50;;;13.03
27826;BMP280;15077;49.704;9.908;2024-03-06T10:20:59;98509.88;;;13.05
27826;BMP280;15077;49.704;9.908;2024-03-06T10:23:26;98509.81;;;13.07
27826;BMP280;15077;49.704;9.908;2024-03-06T10:25:55;98507.94;;;13.10
27826;BMP280;15077;49.704;9.908;2024-03-06T10:28:22;98510.41;;;13.11
27826;BMP280;15077;49.704;9.908;2024-03-06T10:30:48;98512.03;;;13.14
27826;BMP280;15077;49.704;9.908;2024-03-06T10:33:16;98521.25;;;13.16
27826;BMP280;15077;49.704;9.908;2024-03-06T10:35:46;98518.63;;;13.18
27826;BMP280;15077;49.704;9.908;2024-03-06T10:38:14;98508.31;;;13.21
27826;BMP280;15077;49.704;9.908;2024-03-06T10:40:42;98514.16;;;13.23
27826;BMP280;15077;49.704;9.908;2024-03-06T10:43:09;98517.44;;;13.25
27826;BMP280;15077;49.704;9.908;2024-03-06T10:48:09;98516.34;;;13.30
27826;BMP280;15077;49.704;9.908;2024-03-06T10:50:39;98521.31;;;13.33
27826;BMP280;15077;49.704;9.908;2024-03-06T10:53:14;98517.81;;;13.36
27826;BMP280;15077;49.704;9.908;2024-03-06T10:55:40;98528.75;;;13.38
27826;BMP280;15077;49.704;9.908;2024-03-06T10:58:10;98522.63;;;13.42
27826;BMP280;15077;49.704;9.908;2024-03-06T11:00:40;98523.38;;;13.44
27826;BMP280;15077;49.704;9.908;2024-03-06T11:03:10;98521.47;;;13.49
27826;BMP280;15077;49.704;9.908;2024-03-06T11:05:40;98525.56;;;13.51
27826;BMP280;15077;49.704;9.908;2024-03-06T11:08:09;98521.19;;;13.55
27826;BMP280;15077;49.704;9.908;2024-03-06T11:10:38;98527.84;;;13.57
27826;BMP280;15077;49.704;9.908;2024-03-06T11:13:21;98523.59;;;13.57
27826;BMP280;15077;49.704;9.908;2024-03-06T11:15:48;98526.81;;;13.61
27826;BMP280;15077;49.704;9.908;2024-03-06T11:24:13;98530.75;;;13.68
27826;BMP280;15077;49.704;9.908;2024-03-06T11:26:43;98536.59;;;13.70
27826;BMP280;15077;49.704;9.908;2024-03-06T11:29:11;98518.69;;;13.71
27826;BMP280;15077;49.704;9.908;2024-03-06T11:31:36;98531.28;;;13.74
27826;BMP280;15077;49.704;9.908;2024-03-06T11:34:04;98526.03;;;13.77
27826;BMP280;15077;49.704;9.908;2024-03-06T11:36:30;98528.59;;;13.77
27826;BMP280;15077;49.704;9.908;2024-03-06T11:38:59;98520.81;;;13.80
27826;BMP280;15077;49.704;9.908;2024-03-06T11:44:21;98520.44;;;13.88
27826;BMP280;15077;49.704;9.908;2024-03-06T11:49:21;98526.09;;;13.94
27826;BMP280;15077;49.704;9.908;2024-03-06T11:51:53;98515.75;;;13.97
27826;BMP280;15077;49.704;9.908;2024-03-06T11:54:19;98516.44;;;14.01
27826;BMP280;15077;49.704;9.908;2024-03-06T11:56:56;98514.69;;;14.01
27826;BMP280;15077;49.704;9.908;2024-03-06T11:59:26;98516.25;;;14.05
27826;BMP280;15077;49.704;9.908;2024-03-06T12:01:53;98522.84;;;14.09
27826;BMP280;15077;49.704;9.908;2024-03-06T12:04:22;98524.41;;;14.11
27826;BMP280;15077;49.704;9.908;2024-03-06T12:06:48;98520.91;;;14.14
27826;BMP280;15077;49.704;9.908;2024-03-06T12:09:14;98517.38;;;14.16
27826;BMP280;15077;49.704;9.908;2024-03-06T12:11:41;98518.22;;;14.17
27826;BMP280;15077;49.704;9.908;2024-03-06T12:14:14;98518.06;;;14.20
27826;BMP280;15077;49.704;9.908;2024-03-06T12:16:43;98528.09;;;14.23
27826;BMP280;15077;49.704;9.908;2024-03-06T12:19:09;98522.88;;;14.26
27826;BMP280;15077;49.704;9.908;2024-03-06T12:21:35;98520.09;;;14.30
27826;BMP280;15077;49.704;9.908;2024-03-06T12:24:04;98521.69;;;14.33
27826;BMP280;15077;49.704;9.908;2024-03-06T12:26:30;98525.75;;;14.37
27826;BMP280;15077;49.704;9.908;2024-03-06T12:29:09;98522.19;;;14.39
27826;BMP280;15077;49.704;9.908;2024-03-06T12:31:41;98525.50;;;14.41
27826;BMP280;15077;49.704;9.908;2024-03-06T12:34:07;98522.97;;;14.41
27826;BMP280;15077;49.704;9.908;2024-03-06T12:36:33;98527.13;;;14.42
27826;BMP280;15077;49.704;9.908;2024-03-06T12:39:00;98522.81;;;14.44
27826;BMP280;15077;49.704;9.908;2024-03-06T12:41:27;98521.06;;;14.45
27826;BMP280;15077;49.704;9.908;2024-03-06T12:43:54;98520.19;;;14.46
27826;BMP280;15077;49.704;9.908;2024-03-06T12:46:22;98524.28;;;14.48
27826;BMP280;15077;49.704;9.908;2024-03-06T12:48:48;98527.63;;;14.50
27826;BMP280;15077;49.704;9.908;2024-03-06T12:51:13;98527.53;;;14.52
27826;BMP280;15077;49.704;9.908;2024-03-06T12:53:39;98524.84;;;14.55
27826;BMP280;15077;49.704;9.908;2024-03-06T12:56:05;98519.56;;;14.57
27826;BMP280;15077;49.704;9.908;2024-03-06T12:58:31;98521.06;;;14.61
27826;BMP280;15077;49.704;9.908;2024-03-06T13:00:57;98520.97;;;14.63
27826;BMP280;15077;49.704;9.908;2024-03-06T13:03:24;98519.94;;;14.67
27826;BMP280;15077;49.704;9.908;2024-03-06T13:05:49;98517.31;;;14.68
27826;BMP280;15077;49.704;9.908;2024-03-06T13:08:17;98523.06;;;14.72
27826;BMP280;15077;49.704;9.908;2024-03-06T13:10:43;98519.63;;;14.73
27826;BMP280;15077;49.704;9.908;2024-03-06T13:13:08;98511.91;;;14.74
27826;BMP280;15077;49.704;9.908;2024-03-06T13:15:34;98511.75;;;14.77
27826;BMP280;15077;49.704;9.908;2024-03-06T13:18:00;98518.34;;;14.81
27826;BMP280;15077;49.704;9.908;2024-03-06T13:20:30;98520.91;;;14.81
27826;BMP280;15077;49.704;9.908;2024-03-06T13:22:55;98512.59;;;14.78
27826;BMP280;15077;49.704;9.908;2024-03-06T13:25:21;98516.03;;;14.77
27826;BMP280;15077;49.704;9.908;2024-03-06T13:27:47;98509.19;;;14.77
27826;BMP280;15077;49.704;9.908;2024-03-06T13:30:13;98516.69;;;14.80
27826;BMP280;15077;49.704;9.908;2024-03-06T13:32:39;98521.63;;;14.83
27826;BMP280;15077;49.704;9.908;2024-03-06T13:35:05;98513.91;;;14.85
27826;BMP280;15077;49.704;9.908;2024-03-06T13:37:42;98520.50;;;14.89
27826;BMP280;15077;49.704;9.908;2024-03-06T13:40:08;98519.53;;;14.91
27826;BMP280;15077;49.704;9.908;2024-03-06T13:42:36;98524.50;;;14.94
27826;BMP280;15077;49.704;9.908;2024-03-06T13:45:03;98525.16;;;14.98
27826;BMP280;15077;49.704;9.908;2024-03-06T13:47:30;98526.72;;;15.00
27826;BMP280;15077;49.704;9.908;2024-03-06T13:49:56;98527.47;;;15.02
27826;BMP280;15077;49.704;9.908;2024-03-06T13:52:21;98518.84;;;15.04
27826;BMP280;15077;49.704;9.908;2024-03-06T13:54:49;98522.03;;;15.08
27826;BMP280;15077;49.704;9.908;2024-03-06T13:57:15;98531.28;;;15.10
27826;BMP280;15077;49.704;9.908;2024-03-06T13:59:41;98531.94;;;15.14
27826;BMP280;15077;49.704;9.908;2024-03-06T14:02:07;98525.00;;;15.16
27826;BMP280;15077;49.704;9.908;2024-03-06T14:04:33;98524.59;;;15.25
27826;BMP280;15077;49.704;9.908;2024-03-06T14:06:59;98519.91;;;15.33
27826;BMP280;15077;49.704;9.908;2024-03-06T14:09:26;98524.59;;;15.40
27826;BMP280;15077;49.704;9.908;2024-03-06T14:11:52;98523.31;;;15.49
27826;BMP280;15077;49.704;9.908;2024-03-06T14:14:19;98519.50;;;15.55
27826;BMP280;15077;49.704;9.908;2024-03-06T14:16:45;98510.75;;;15.59
27826;BMP280;15077;49.704;9.908;2024-03-06T14:19:11;98512.19;;;15.65
27826;BMP280;15077;49.704;9.908;2024-03-06T14:21:37;98517.84;;;15.70